createdAt,value
2018-11-23T00:00:13.423Z,38.37
2018-11-23T00:02:43.305Z,30.60
2018-11-23T00:05:12.157Z,39.03
2018-11-23T00:07:41.509Z,32.67
2018-11-23T00:10:12.394Z,36.57
2018-11-23T00:12:41.170Z,29.10
2018-11-23T00:15:12.890Z,30.17
2018-11-23T00:17:41.785Z,29.30
2018-11-23T00:20:13.343Z,33.60
2018-11-23T00:22:42.125Z,35.87
2018-11-23T00:25:13.553Z,27.60
2018-11-23T00:27:43.121Z,32.60
2018-11-23T00:30:20.298Z,27.43
2018-11-23T00:32:49.609Z,32.57
2018-11-23T00:35:20.081Z,29.23
2018-11-23T00:37:49.626Z,53.40
2018-11-23T00:40:28.369Z,27.77
2018-11-23T00:42:57.321Z,22.60
2018-11-23T00:45:26.162Z,25.37
2018-11-23T00:47:55.963Z,21.97
2018-11-23T00:50:25.512Z,26.23
2018-11-23T00:52:55.335Z,26.30
2018-11-23T00:55:25.027Z,23.40
2018-11-23T00:57:53.842Z,24.20
2018-11-23T01:00:25.985Z,22.50
2018-11-23T01:02:55.377Z,23.80
2018-11-23T01:05:24.198Z,21.30
2018-11-23T01:07:52.986Z,23.13
2018-11-23T01:10:22.965Z,30.63
2018-11-23T01:12:52.897Z,24.63
2018-11-23T01:15:21.706Z,24.40
2018-11-23T01:17:50.521Z,24.93
2018-11-23T01:20:20.593Z,28.00
2018-11-23T01:22:49.796Z,26.23
2018-11-23T01:25:19.910Z,27.83
2018-11-23T01:27:49.961Z,27.20
2018-11-23T01:30:25.321Z,30.03
2018-11-23T01:32:54.094Z,26.10
2018-11-23T01:35:22.895Z,33.63
2018-11-23T01:37:51.713Z,28.23
2018-11-23T01:40:22.825Z,32.17
2018-11-23T01:42:51.734Z,23.50
2018-11-23T01:45:20.541Z,28.53
2018-11-23T01:47:49.324Z,32.60
2018-11-23T01:50:19.935Z,30.20
2018-11-23T01:52:49.377Z,25.33
2018-11-23T01:55:18.993Z,21.40
2018-11-23T01:57:48.186Z,23.33
2018-11-23T02:00:18.405Z,26.60
2018-11-23T02:02:47.818Z,24.57
2018-11-23T02:05:16.617Z,27.57
2018-11-23T02:07:45.438Z,25.30
2018-11-23T02:10:15.265Z,27.50
2018-11-23T02:12:44.129Z,36.13
2018-11-23T02:15:15.102Z,30.40
2018-11-23T02:17:43.901Z,33.03
2018-11-23T02:20:13.813Z,33.30
2018-11-23T02:22:42.673Z,32.90
2018-11-23T02:25:11.502Z,25.43
2018-11-23T02:27:40.318Z,24.07
2018-11-23T02:30:15.476Z,28.10
2018-11-23T02:32:44.627Z,31.37
2018-11-23T02:35:14.046Z,24.63
2018-11-23T02:37:42.873Z,26.00
2018-11-23T02:40:12.859Z,22.63
2018-11-23T02:42:41.681Z,22.30
2018-11-23T02:45:13.193Z,24.90
2018-11-23T02:47:42.921Z,31.50
2018-11-23T02:50:11.734Z,38.83
2018-11-23T02:52:41.286Z,37.43
2018-11-23T02:55:11.657Z,38.60
2018-11-23T02:57:40.492Z,31.13
2018-11-23T03:00:11.349Z,29.10
2018-11-23T03:02:40.254Z,21.57
2018-11-23T03:05:10.974Z,22.27
2018-11-23T03:07:40.257Z,23.20
2018-11-23T03:10:10.187Z,20.77
2018-11-23T03:12:39.225Z,20.83
2018-11-23T03:15:09.354Z,24.67
2018-11-23T03:17:38.155Z,28.97
2018-11-23T03:20:09.587Z,22.73
2018-11-23T03:22:38.529Z,34.27
2018-11-23T03:25:07.880Z,27.40
2018-11-23T03:27:36.706Z,21.87
2018-11-23T03:30:08.955Z,15.83
2018-11-23T03:32:37.770Z,19.57
2018-11-23T03:35:06.725Z,17.10
2018-11-23T03:37:35.522Z,18.73
2018-11-23T03:40:04.373Z,16.83
2018-11-23T03:42:33.319Z,13.80
2018-11-23T03:45:02.543Z,22.17
2018-11-23T03:47:31.353Z,12.37
2018-11-23T03:50:00.561Z,17.60
2018-11-23T03:52:29.361Z,18.20
2018-11-23T03:54:58.170Z,18.50
2018-11-23T03:57:26.970Z,19.97
2018-11-23T03:59:55.774Z,15.27
2018-11-23T04:02:24.957Z,17.50
2018-11-23T04:04:54.110Z,11.50
2018-11-23T04:07:22.990Z,14.27
2018-11-23T04:09:51.781Z,17.97
2018-11-23T04:12:20.594Z,14.30
2018-11-23T04:14:49.383Z,23.33
2018-11-23T04:17:18.177Z,20.53
2018-11-23T04:19:47.002Z,34.50
2018-11-23T04:22:15.794Z,20.83
2018-11-23T04:24:44.601Z,16.17
2018-11-23T04:27:13.408Z,14.63
2018-11-23T04:29:42.193Z,14.50
2018-11-23T04:32:12.074Z,12.23
2018-11-23T04:34:40.867Z,12.93
2018-11-23T04:37:09.661Z,18.00
2018-11-23T04:39:38.473Z,14.93
2018-11-23T04:42:07.268Z,10.10
2018-11-23T04:44:36.058Z,17.63
2018-11-23T04:47:04.940Z,47.53
2018-11-23T04:49:34.056Z,37.60
2018-11-23T04:52:02.853Z,31.90
2018-11-23T04:54:31.649Z,29.00
2018-11-23T04:57:00.653Z,53.33
2018-11-23T04:59:29.484Z,60.90
2018-11-23T05:01:58.278Z,61.10
2018-11-23T05:04:27.501Z,55.93
2018-11-23T05:06:56.285Z,57.53
2018-11-23T05:09:25.069Z,56.10
2018-11-23T05:11:53.886Z,57.73
2018-11-23T05:14:22.690Z,62.40
2018-11-23T05:16:51.505Z,53.87
2018-11-23T05:19:20.366Z,49.50
2018-11-23T05:21:49.205Z,47.07
2018-11-23T05:24:18.014Z,54.70
2018-11-23T05:26:47.310Z,17.43
2018-11-23T05:29:16.162Z,13.90
2018-11-23T05:31:44.994Z,19.67
2018-11-23T05:34:14.178Z,12.67
2018-11-23T05:36:43.033Z,17.33
2018-11-23T05:39:11.836Z,44.03
2018-11-23T05:41:40.651Z,49.33
2018-11-23T05:44:09.452Z,46.00
2018-11-23T05:46:38.274Z,46.87
2018-11-23T05:49:07.090Z,51.90
2018-11-23T05:51:35.913Z,32.33
2018-11-23T05:54:04.781Z,34.60
2018-11-23T05:56:33.570Z,48.63
2018-11-23T05:59:02.403Z,51.50
2018-11-23T06:01:31.223Z,51.47
2018-11-23T06:04:00.036Z,48.37
2018-11-23T06:06:28.853Z,44.50
2018-11-23T06:08:57.649Z,35.67
2018-11-23T06:11:26.826Z,30.00
2018-11-23T06:13:55.629Z,25.10
2018-11-23T06:16:24.445Z,29.10
2018-11-23T06:18:53.267Z,29.40
2018-11-23T06:21:22.052Z,32.53
2018-11-23T06:23:50.868Z,33.60
2018-11-23T06:26:22.861Z,41.13
2018-11-23T06:28:51.702Z,52.10
2018-11-23T06:31:20.762Z,51.57
2018-11-23T06:33:50.036Z,53.63
2018-11-23T06:36:18.881Z,42.53
2018-11-23T06:38:47.769Z,49.27
2018-11-23T06:41:16.882Z,57.43
2018-11-23T06:43:46.039Z,48.73
2018-11-23T06:46:15.189Z,43.93
2018-11-23T06:48:44.385Z,42.00
2018-11-23T06:51:13.186Z,38.87
2018-11-23T06:53:42.220Z,47.33
2018-11-23T06:56:11.028Z,41.33
2018-11-23T06:58:39.852Z,37.33
2018-11-23T07:01:08.665Z,33.00
2018-11-23T07:03:37.521Z,30.40
2018-11-23T07:06:06.322Z,35.07
2018-11-23T07:08:35.153Z,33.33
2018-11-23T07:11:04.217Z,31.07
2018-11-23T07:13:34.005Z,32.53
2018-11-23T07:16:02.815Z,38.20
2018-11-23T07:18:31.614Z,35.03
2018-11-23T07:21:00.441Z,24.30
2018-11-23T07:23:29.562Z,24.57
2018-11-23T07:25:58.378Z,24.03
2018-11-23T07:28:27.313Z,21.50
2018-11-23T07:31:02.063Z,22.43
2018-11-23T07:33:25.132Z,25.17
2018-11-23T07:35:54.026Z,22.90
2018-11-23T07:38:22.826Z,26.23
2018-11-23T07:41:03.013Z,23.17
2018-11-23T07:43:32.793Z,25.43
2018-11-23T07:46:01.613Z,24.00
2018-11-23T07:48:30.434Z,26.97
2018-11-23T07:50:59.676Z,30.80
2018-11-23T07:53:28.449Z,29.20
2018-11-23T07:55:57.331Z,26.40
2018-11-23T07:58:26.134Z,37.90
2018-11-23T08:00:54.989Z,49.23
2018-11-23T08:03:23.818Z,56.27
2018-11-23T08:05:52.650Z,56.63
2018-11-23T08:08:21.479Z,60.60
2018-11-23T08:10:49.544Z,53.97
2018-11-23T08:13:19.129Z,50.50
2018-11-23T08:15:47.978Z,45.00
2018-11-23T08:18:16.833Z,63.97
2018-11-23T08:20:45.642Z,55.23
2018-11-23T08:23:14.469Z,65.83
2018-11-23T08:25:43.304Z,65.83
2018-11-23T08:28:12.106Z,55.17
2018-11-23T08:30:40.921Z,59.13
2018-11-23T08:33:09.736Z,61.17
2018-11-23T08:35:38.539Z,54.17
2018-11-23T08:38:07.346Z,54.13
2018-11-23T08:40:36.178Z,59.93
2018-11-23T08:43:05.154Z,64.63
2018-11-23T08:45:33.997Z,46.77
2018-11-23T08:48:02.874Z,51.50
2018-11-23T08:50:31.757Z,52.73
2018-11-23T08:53:00.561Z,54.00
2018-11-23T08:55:29.483Z,49.20
2018-11-23T08:57:58.291Z,49.20
2018-11-23T09:00:28.838Z,45.07
2018-11-23T09:03:00.087Z,45.17
2018-11-23T09:05:28.888Z,38.07
2018-11-23T09:07:58.125Z,31.50
2018-11-23T09:10:29.401Z,31.30
2018-11-23T09:13:00.076Z,33.20
2018-11-23T09:15:29.188Z,36.27
2018-11-23T09:17:58.118Z,31.50
2018-11-23T09:20:26.950Z,28.07
2018-11-23T09:22:55.858Z,26.80
2018-11-23T09:25:24.997Z,31.63
2018-11-23T09:27:53.841Z,34.37
2018-11-23T09:30:23.913Z,30.37
2018-11-23T09:32:53.505Z,29.90
2018-11-23T09:35:22.449Z,31.53
2018-11-23T09:37:52.184Z,28.87
2018-11-23T09:40:23.103Z,29.47
2018-11-23T09:42:52.323Z,28.93
2018-11-23T09:45:23.345Z,29.37
2018-11-23T09:47:53.554Z,33.80
2018-11-23T09:50:23.344Z,28.30
2018-11-23T09:52:53.409Z,34.77
2018-11-23T09:55:24.008Z,29.07
2018-11-23T09:57:51.853Z,25.67
2018-11-23T10:00:24.027Z,31.17
2018-11-23T10:02:53.933Z,29.23
2018-11-23T10:05:23.662Z,28.70
2018-11-23T10:07:54.174Z,30.60
2018-11-23T10:10:23.590Z,37.00
2018-11-23T10:12:52.411Z,34.83
2018-11-23T10:15:22.157Z,32.80
2018-11-23T10:17:51.325Z,34.97
2018-11-23T10:20:22.050Z,29.17
2018-11-23T10:22:50.913Z,41.73
2018-11-23T10:25:21.314Z,39.20
2018-11-23T10:27:50.151Z,39.13
2018-11-23T10:30:21.025Z,36.40
2018-11-23T10:32:51.191Z,39.37
2018-11-23T10:35:20.290Z,40.07
2018-11-23T10:37:50.702Z,35.17
2018-11-23T10:40:20.962Z,38.17
2018-11-23T10:42:49.782Z,37.97
2018-11-23T10:45:20.842Z,38.20
2018-11-23T10:47:50.346Z,38.63
2018-11-23T10:50:21.337Z,38.97
2018-11-23T10:52:50.309Z,40.20
2018-11-23T10:55:21.317Z,48.10
2018-11-23T10:57:50.274Z,44.10
2018-11-23T11:00:24.631Z,43.97
2018-11-23T11:02:59.656Z,41.47
2018-11-23T11:05:33.945Z,40.80
2018-11-23T11:08:03.582Z,41.30
2018-11-23T11:10:32.470Z,39.60
2018-11-23T11:13:01.628Z,36.80
2018-11-23T11:15:30.441Z,34.83
2018-11-23T11:17:59.312Z,40.37
2018-11-23T11:20:28.146Z,38.00
2018-11-23T11:22:56.988Z,39.80
2018-11-23T11:25:25.839Z,41.67
2018-11-23T11:27:54.705Z,39.07
2018-11-23T11:30:23.514Z,35.10
2018-11-23T11:32:52.362Z,37.47
2018-11-23T11:35:21.161Z,43.90
2018-11-23T11:37:49.998Z,39.30
2018-11-23T11:40:20.042Z,37.10
2018-11-23T11:42:48.861Z,39.47
2018-11-23T11:45:19.102Z,38.60
2018-11-23T11:47:48.319Z,36.17
2018-11-23T11:50:17.128Z,43.70
2018-11-23T11:52:47.396Z,39.30
2018-11-23T11:55:20.234Z,41.00
2018-11-23T11:57:49.577Z,46.77
2018-11-23T12:00:20.123Z,40.53
2018-11-23T12:02:48.953Z,47.00
2018-11-23T12:05:17.781Z,46.63
2018-11-23T12:07:46.620Z,49.73
2018-11-23T12:10:17.187Z,42.43
2018-11-23T12:12:46.014Z,45.77
2018-11-23T12:15:15.509Z,43.57
2018-11-23T12:17:44.403Z,40.80
2018-11-23T12:20:17.029Z,46.20
2018-11-23T12:22:46.167Z,43.47
2018-11-23T12:25:15.430Z,43.40
2018-11-23T12:27:44.336Z,42.00
2018-11-23T12:30:16.434Z,42.37
2018-11-23T12:32:46.254Z,51.67
2018-11-23T12:35:16.199Z,46.60
2018-11-23T12:37:45.021Z,40.83
2018-11-23T12:40:15.049Z,44.00
2018-11-23T12:42:44.714Z,50.93
2018-11-23T12:45:14.996Z,47.90
2018-11-23T12:47:43.871Z,42.70
2018-11-23T12:50:14.818Z,42.63
2018-11-23T12:52:43.777Z,52.80
2018-11-23T12:55:13.432Z,53.20
2018-11-23T12:57:42.622Z,52.90
2018-11-23T13:00:17.397Z,58.20
2018-11-23T13:02:47.168Z,46.87
2018-11-23T13:05:16.101Z,42.70
2018-11-23T13:07:44.926Z,50.30
2018-11-23T13:10:15.226Z,45.53
2018-11-23T13:12:44.448Z,49.30
2018-11-23T13:15:12.859Z,40.03
2018-11-23T13:17:41.710Z,46.60
2018-11-23T13:20:13.078Z,53.73
2018-11-23T13:22:41.890Z,47.47
2018-11-23T13:25:12.500Z,44.87
2018-11-23T13:27:41.372Z,43.47
2018-11-23T13:30:14.134Z,41.90
2018-11-23T13:32:43.473Z,44.37
2018-11-23T13:35:13.910Z,43.27
2018-11-23T13:37:42.878Z,48.60
2018-11-23T13:40:13.886Z,45.57
2018-11-23T13:42:43.145Z,44.73
2018-11-23T13:45:14.296Z,42.93
2018-11-23T13:47:43.216Z,42.27
2018-11-23T13:50:14.340Z,43.37
2018-11-23T13:52:44.450Z,43.83
2018-11-23T13:55:13.287Z,48.80
2018-11-23T13:57:42.234Z,47.93
2018-11-23T14:00:16.074Z,43.67
2018-11-23T14:02:45.318Z,42.73
2018-11-23T14:05:16.460Z,43.67
2018-11-23T14:07:46.584Z,46.00
2018-11-23T14:10:17.829Z,45.70
2018-11-23T14:12:46.819Z,45.20
2018-11-23T14:15:23.495Z,49.37
2018-11-23T14:17:53.289Z,52.13
2018-11-23T14:20:23.126Z,56.60
2018-11-23T14:22:52.400Z,47.70
2018-11-23T14:25:22.625Z,51.83
2018-11-23T14:27:51.937Z,56.23
2018-11-23T14:30:25.806Z,53.00
2018-11-23T14:32:54.918Z,54.43
2018-11-23T14:35:25.203Z,53.70
2018-11-23T14:37:54.973Z,52.37
2018-11-23T14:40:23.992Z,53.67
2018-11-23T14:42:53.256Z,51.40
2018-11-23T14:45:24.330Z,53.93
2018-11-23T14:47:54.313Z,52.57
2018-11-23T14:50:26.918Z,48.40
2018-11-23T14:52:56.421Z,55.33
2018-11-23T14:55:25.357Z,53.83
2018-11-23T14:57:54.431Z,49.80
2018-11-23T15:00:27.221Z,55.40
2018-11-23T15:02:57.210Z,57.83
2018-11-23T15:05:26.009Z,55.83
2018-11-23T15:07:54.833Z,69.40
2018-11-23T15:10:24.953Z,65.50
2018-11-23T15:12:55.722Z,56.60
2018-11-23T15:15:26.058Z,61.00
2018-11-23T15:17:55.443Z,56.87
2018-11-23T15:20:28.233Z,57.80
2018-11-23T15:23:00.884Z,52.53
2018-11-23T15:25:29.742Z,54.43
2018-11-23T15:27:58.560Z,59.60
2018-11-23T15:30:29.633Z,68.20
2018-11-23T15:32:58.830Z,63.23
2018-11-23T15:35:29.104Z,57.13
2018-11-23T15:37:57.937Z,65.33
2018-11-23T15:40:27.981Z,66.17
2018-11-23T15:43:06.035Z,74.00
2018-11-23T15:45:35.669Z,57.90
2018-11-23T15:48:04.988Z,69.27
2018-11-23T15:50:35.223Z,64.33
2018-11-23T15:53:04.181Z,58.63
2018-11-23T15:55:34.474Z,65.80
2018-11-23T15:58:05.054Z,62.00
2018-11-23T16:00:36.213Z,65.33
2018-11-23T16:03:06.497Z,67.60
2018-11-23T16:05:35.338Z,60.00
2018-11-23T16:08:06.110Z,63.37
2018-11-23T16:10:36.669Z,65.63
2018-11-23T16:13:11.114Z,59.50
2018-11-23T16:15:35.893Z,56.70
2018-11-23T16:18:05.239Z,69.50
2018-11-23T16:20:36.633Z,66.00
2018-11-23T16:23:07.750Z,56.43
2018-11-23T16:25:36.588Z,72.87
2018-11-23T16:28:06.777Z,65.47
2018-11-23T16:30:37.190Z,67.57
2018-11-23T16:33:07.282Z,60.40
2018-11-23T16:35:37.238Z,66.93
2018-11-23T16:38:08.695Z,64.90
2018-11-23T16:40:39.139Z,67.77
2018-11-23T16:43:09.214Z,64.43
2018-11-23T16:45:38.638Z,66.97
2018-11-23T16:48:08.661Z,67.10
2018-11-23T16:50:37.545Z,67.73
2018-11-23T16:53:06.553Z,61.77
2018-11-23T16:55:35.478Z,63.90
2018-11-23T16:58:06.693Z,69.50
2018-11-23T17:00:37.357Z,65.27
2018-11-23T17:03:08.537Z,68.73
2018-11-23T17:05:41.989Z,75.80
2018-11-23T17:08:11.062Z,73.70
2018-11-23T17:10:39.890Z,69.03
2018-11-23T17:13:09.086Z,64.47
2018-11-23T17:15:37.921Z,72.10
2018-11-23T17:18:06.861Z,61.20
2018-11-23T17:20:36.478Z,67.63
2018-11-23T17:23:07.665Z,66.23
2018-11-23T17:25:36.480Z,67.77
2018-11-23T17:28:06.919Z,67.63
2018-11-23T17:30:36.266Z,75.83
2018-11-23T17:33:05.432Z,69.23
2018-11-23T17:35:34.293Z,70.90
2018-11-23T17:38:03.154Z,65.80
2018-11-23T17:40:33.878Z,72.23
2018-11-23T17:43:02.701Z,85.60
2018-11-23T17:45:32.713Z,90.07
2018-11-23T17:48:01.814Z,89.23
2018-11-23T17:50:32.238Z,81.30
2018-11-23T17:53:01.267Z,87.80
2018-11-23T17:55:30.293Z,89.13
2018-11-23T17:57:59.442Z,65.33
2018-11-23T18:00:38.546Z,75.13
2018-11-23T18:03:02.083Z,73.73
2018-11-23T18:05:31.822Z,71.10
2018-11-23T18:08:01.625Z,71.50
2018-11-23T18:10:31.462Z,73.13
2018-11-23T18:13:00.810Z,72.70
2018-11-23T18:15:30.848Z,70.70
2018-11-23T18:18:00.675Z,75.07
2018-11-23T18:20:30.529Z,74.63
2018-11-23T18:23:00.150Z,76.60
2018-11-23T18:25:33.493Z,70.60
2018-11-23T18:28:02.662Z,71.23
2018-11-23T18:30:32.533Z,65.87
2018-11-23T18:33:03.670Z,63.70
2018-11-23T18:35:32.486Z,65.37
2018-11-23T18:38:01.323Z,63.73
2018-11-23T18:40:36.964Z,62.60
2018-11-23T18:42:59.046Z,69.17
2018-11-23T18:45:27.938Z,63.17
2018-11-23T18:47:56.776Z,65.43
2018-11-23T18:50:25.661Z,67.43
2018-11-23T18:52:54.629Z,66.17
2018-11-23T18:55:23.478Z,67.20
2018-11-23T18:57:52.345Z,63.97
2018-11-23T19:00:21.202Z,73.13
2018-11-23T19:02:50.061Z,75.40
2018-11-23T19:05:21.261Z,68.50
2018-11-23T19:07:50.086Z,67.43
2018-11-23T19:10:18.898Z,63.10
2018-11-23T19:12:47.973Z,70.10
2018-11-23T19:15:25.175Z,72.53
2018-11-23T19:17:46.689Z,69.23
2018-11-23T19:20:18.494Z,79.23
2018-11-23T19:22:48.478Z,80.33
2018-11-23T19:25:17.274Z,79.53
2018-11-23T19:27:46.106Z,69.27
2018-11-23T19:30:16.063Z,77.03
2018-11-23T19:32:44.937Z,72.57
2018-11-23T19:35:13.737Z,77.23
2018-11-23T19:37:42.541Z,80.70
2018-11-23T19:40:12.459Z,76.87
2018-11-23T19:42:41.329Z,84.70
2018-11-23T19:45:11.378Z,86.70
2018-11-23T19:47:40.202Z,87.07
2018-11-23T19:50:11.630Z,79.90
2018-11-23T19:52:40.625Z,75.07
2018-11-23T19:55:10.201Z,81.13
2018-11-23T19:57:39.373Z,78.47
2018-11-23T20:00:13.273Z,70.30
2018-11-23T20:02:42.115Z,80.33
2018-11-23T20:05:10.945Z,76.27
2018-11-23T20:07:39.753Z,73.40
2018-11-23T20:10:11.518Z,80.60
2018-11-23T20:12:40.326Z,81.43
2018-11-23T20:15:12.270Z,78.60
2018-11-23T20:17:41.645Z,86.63
2018-11-23T20:20:11.341Z,78.40
2018-11-23T20:22:40.170Z,82.03
2018-11-23T20:25:12.341Z,87.90
2018-11-23T20:27:41.172Z,82.87
2018-11-23T20:30:14.969Z,79.27
2018-11-23T20:32:43.797Z,72.97
2018-11-23T20:35:13.989Z,78.90
2018-11-23T20:37:44.061Z,78.43
2018-11-23T20:40:18.228Z,71.97
2018-11-23T20:42:47.037Z,72.97
2018-11-23T20:45:15.962Z,78.73
2018-11-23T20:47:44.842Z,74.87
2018-11-23T20:50:15.602Z,76.77
2018-11-23T20:52:44.474Z,75.50
2018-11-23T20:55:17.483Z,76.43
2018-11-23T20:57:46.304Z,65.80
2018-11-23T21:00:16.956Z,75.40
2018-11-23T21:02:46.586Z,83.00
2018-11-23T21:05:17.819Z,80.53
2018-11-23T21:07:46.658Z,68.27
2018-11-23T21:10:20.365Z,80.00
2018-11-23T21:12:47.741Z,81.60
2018-11-23T21:15:21.037Z,82.57
2018-11-23T21:17:49.905Z,75.03
2018-11-23T21:20:18.710Z,77.63
2018-11-23T21:22:47.562Z,73.77
2018-11-23T21:25:16.481Z,84.37
2018-11-23T21:27:45.293Z,82.03
2018-11-23T21:30:17.118Z,86.60
2018-11-23T21:32:45.950Z,78.80
2018-11-23T21:35:14.846Z,76.67
2018-11-23T21:37:43.692Z,70.30
2018-11-23T21:40:14.389Z,75.67
2018-11-23T21:42:43.286Z,66.60
2018-11-23T21:45:15.896Z,72.37
2018-11-23T21:47:45.037Z,57.63
2018-11-23T21:50:24.529Z,70.10
2018-11-23T21:52:46.601Z,61.77
2018-11-23T21:55:17.489Z,59.57
2018-11-23T21:57:46.752Z,58.27
2018-11-23T22:00:15.832Z,62.17
2018-11-23T22:02:44.699Z,57.73
2018-11-23T22:05:13.552Z,59.60
2018-11-23T22:07:42.374Z,58.40
2018-11-23T22:10:15.945Z,70.07
2018-11-23T22:12:44.853Z,60.77
2018-11-23T22:15:19.038Z,52.63
2018-11-23T22:17:48.293Z,60.50
2018-11-23T22:20:18.147Z,62.27
2018-11-23T22:22:46.989Z,58.60
2018-11-23T22:25:16.844Z,55.40
2018-11-23T22:27:45.669Z,59.80
2018-11-23T22:30:19.964Z,60.50
2018-11-23T22:32:48.744Z,56.83
2018-11-23T22:35:17.578Z,52.73
2018-11-23T22:37:46.373Z,53.03
2018-11-23T22:40:18.083Z,57.27
2018-11-23T22:42:48.179Z,58.73
2018-11-23T22:45:17.377Z,50.90
2018-11-23T22:47:46.210Z,63.47
2018-11-23T22:50:18.970Z,54.00
2018-11-23T22:52:47.971Z,46.70
2018-11-23T22:55:17.256Z,53.10
2018-11-23T22:57:46.041Z,47.33
2018-11-23T23:00:22.067Z,51.03
2018-11-23T23:02:50.900Z,46.70
2018-11-23T23:05:20.909Z,48.23
2018-11-23T23:07:49.813Z,42.90
2018-11-23T23:10:18.625Z,49.90
2018-11-23T23:12:47.558Z,52.23
2018-11-23T23:15:16.865Z,51.97
2018-11-23T23:17:45.713Z,50.77
2018-11-23T23:20:16.382Z,48.77
2018-11-23T23:22:45.202Z,48.40
2018-11-23T23:25:14.065Z,50.77
2018-11-23T23:27:43.618Z,44.27
2018-11-23T23:30:15.271Z,54.17
2018-11-23T23:32:44.343Z,49.60
2018-11-23T23:35:14.073Z,50.70
2018-11-23T23:37:42.881Z,57.57
2018-11-23T23:40:13.781Z,81.00
2018-11-23T23:42:42.574Z,95.33
2018-11-23T23:45:12.482Z,59.87
2018-11-23T23:47:41.273Z,51.20
2018-11-23T23:50:24.907Z,53.00
2018-11-23T23:52:53.709Z,54.40
2018-11-23T23:55:22.515Z,56.10
2018-11-23T23:57:51.658Z,56.10
